Pinckard, Alabama
Current Conditions -  °F | °C
As of 7:53 AM on Tuesday 27 Jan 2015 (Local Time) from KDHN Reporting Station
Clear Clear  
Wind Chill: 37°   Ceiling: Unl
Heat Index: 43°   Visibility: 10mi
Dew Point: 34°   Wind: 10mph
Humidity: 71%   Direction: 280°W
Pressure: 30.02"   Gusts: NA
Location:  31.31°N, 85.55°W
Report Text: KDHN 271353Z 28009KT 10SM CLR 06/01 A3002 RMK AO2 SLP166 T00610011
Loading
Personal Weather Stations






























Interactive Weather Map New forecast layout! Learn more

10-Day Weather Forecast

Advertisements
Track Severe Weather on mobile